createdAt,value
2023-02-14T00:00:41.600Z,43.07
2023-02-14T00:03:10.280Z,40.87
2023-02-14T00:05:50.756Z,38.93
2023-02-14T00:08:27.062Z,36.93
2023-02-14T00:10:57.590Z,40.37
2023-02-14T00:13:26.467Z,44.30
2023-02-14T00:15:54.629Z,35.93
2023-02-14T00:18:47.543Z,38.40
2023-02-14T00:21:16.230Z,36.57
2023-02-14T00:23:44.965Z,39.57
2023-02-14T00:26:17.701Z,38.23
2023-02-14T00:28:49.001Z,40.80
2023-02-14T00:31:18.147Z,41.57
2023-02-14T00:33:47.110Z,40.67
2023-02-14T00:36:15.658Z,36.80
2023-02-14T00:38:44.528Z,44.37
2023-02-14T00:41:19.270Z,44.13
2023-02-14T00:43:50.815Z,43.00
2023-02-14T00:46:19.697Z,44.70
2023-02-14T00:48:48.892Z,40.00
2023-02-14T00:51:18.449Z,39.77
2023-02-14T00:53:49.084Z,36.73
2023-02-14T00:56:18.216Z,38.60
2023-02-14T00:58:49.115Z,40.60
2023-02-14T01:01:26.612Z,38.60
2023-02-14T01:03:57.238Z,37.27
2023-02-14T01:06:25.974Z,43.00
2023-02-14T01:08:54.578Z,37.73
2023-02-14T01:11:25.704Z,38.50
2023-02-14T01:13:54.457Z,39.23
2023-02-14T01:16:24.749Z,38.60
2023-02-14T01:18:53.811Z,34.73
2023-02-14T01:21:26.066Z,37.03
2023-02-14T01:24:01.086Z,36.97
2023-02-14T01:26:32.981Z,37.10
2023-02-14T01:29:01.481Z,42.57
2023-02-14T01:31:32.367Z,39.47
2023-02-14T01:34:01.184Z,37.50
2023-02-14T01:36:30.281Z,36.50
2023-02-14T01:39:03.620Z,38.13
2023-02-14T01:41:36.126Z,38.87
2023-02-14T01:44:07.804Z,34.80
2023-02-14T01:46:38.167Z,41.47
2023-02-14T01:49:15.832Z,37.33
2023-02-14T01:51:45.439Z,37.13
2023-02-14T01:54:14.256Z,39.60
2023-02-14T01:56:43.091Z,39.10
2023-02-14T01:59:12.631Z,38.03
2023-02-14T02:01:42.887Z,38.17
2023-02-14T02:04:12.213Z,37.10
2023-02-14T02:06:44.028Z,43.27
2023-02-14T02:09:14.170Z,38.47
2023-02-14T02:11:43.063Z,40.13
2023-02-14T02:14:12.465Z,36.93
2023-02-14T02:16:56.988Z,37.73
2023-02-14T02:19:33.705Z,35.43
2023-02-14T02:22:27.673Z,37.67
2023-02-14T02:24:56.702Z,35.80
2023-02-14T02:27:33.637Z,40.40
2023-02-14T02:30:32.294Z,35.70
2023-02-14T02:33:08.672Z,36.67
2023-02-14T02:35:47.196Z,40.47
2023-02-14T02:38:20.072Z,43.87
2023-02-14T02:40:51.256Z,37.60
2023-02-14T02:43:24.078Z,36.43
2023-02-14T02:46:13.774Z,39.27
2023-02-14T02:48:44.382Z,38.80
2023-02-14T02:51:32.888Z,34.10
2023-02-14T02:54:02.353Z,39.93
2023-02-14T02:56:50.109Z,41.20
2023-02-14T02:59:20.905Z,37.90
2023-02-14T03:01:51.336Z,41.03
2023-02-14T03:04:39.927Z,37.60
2023-02-14T03:07:23.847Z,39.40
2023-02-14T03:09:53.518Z,38.17
2023-02-14T03:12:24.634Z,33.67
2023-02-14T03:14:53.749Z,38.57
2023-02-14T03:17:26.641Z,38.97
2023-02-14T03:20:13.780Z,38.87
2023-02-14T03:22:45.830Z,39.53
2023-02-14T03:25:19.453Z,35.17
2023-02-14T03:27:49.970Z,34.07
2023-02-14T03:30:20.254Z,43.87
2023-02-14T03:32:49.778Z,36.27
2023-02-14T03:35:19.933Z,39.67
2023-02-14T03:37:52.176Z,36.00
2023-02-14T03:40:22.491Z,39.87
2023-02-14T03:42:53.599Z,38.97
2023-02-14T03:45:28.630Z,39.23
2023-02-14T03:47:58.183Z,38.37
2023-02-14T03:50:26.767Z,38.97
2023-02-14T03:52:56.811Z,45.00
2023-02-14T03:55:28.654Z,43.77
2023-02-14T03:57:58.389Z,45.80
2023-02-14T04:00:28.196Z,40.00
2023-02-14T04:03:00.180Z,42.43
2023-02-14T04:05:31.581Z,49.17
2023-02-14T04:08:04.219Z,39.47
2023-02-14T04:10:34.708Z,42.83
2023-02-14T04:13:03.478Z,44.37
2023-02-14T04:15:31.956Z,42.03
2023-02-14T04:18:17.973Z,43.23
2023-02-14T04:20:46.666Z,42.87
2023-02-14T04:23:18.546Z,45.43
2023-02-14T04:25:47.299Z,42.07
2023-02-14T04:28:15.998Z,43.00
2023-02-14T04:30:48.000Z,45.07
2023-02-14T04:33:16.936Z,45.17
2023-02-14T04:35:45.449Z,43.50
2023-02-14T04:38:14.299Z,44.33
2023-02-14T04:40:44.514Z,41.50
2023-02-14T04:43:14.756Z,41.83
2023-02-14T04:45:44.670Z,43.10
2023-02-14T04:48:13.359Z,42.17
2023-02-14T04:50:42.643Z,45.47
2023-02-14T04:53:11.307Z,43.30
2023-02-14T04:55:41.923Z,46.43
2023-02-14T04:58:11.871Z,42.13
2023-02-14T05:00:43.612Z,39.70
2023-02-14T05:03:12.246Z,40.87
2023-02-14T05:05:44.196Z,47.07
2023-02-14T05:08:12.874Z,38.10
2023-02-14T05:10:41.862Z,45.47
2023-02-14T05:13:13.839Z,43.00
2023-02-14T05:15:45.792Z,40.67
2023-02-14T05:18:14.439Z,42.87
2023-02-14T05:20:45.730Z,43.27
2023-02-14T05:23:14.820Z,44.23
2023-02-14T05:25:43.627Z,39.90
2023-02-14T05:28:12.450Z,45.00
2023-02-14T05:30:41.234Z,44.80
2023-02-14T05:33:13.669Z,45.57
2023-02-14T05:35:42.412Z,43.57
2023-02-14T05:38:10.996Z,45.77
2023-02-14T05:40:39.564Z,41.57
2023-02-14T05:43:08.306Z,41.80
2023-02-14T05:45:37.343Z,47.07
2023-02-14T05:48:06.309Z,41.73
2023-02-14T05:50:38.580Z,44.10
2023-02-14T05:53:10.176Z,46.50
2023-02-14T05:55:39.157Z,49.27
2023-02-14T05:58:07.869Z,44.50
2023-02-14T06:00:39.306Z,46.30
2023-02-14T06:03:10.772Z,45.30
2023-02-14T06:05:41.036Z,48.97
2023-02-14T06:08:09.689Z,41.40
2023-02-14T06:10:41.097Z,47.13
2023-02-14T06:13:10.745Z,44.47
2023-02-14T06:15:39.867Z,44.53
2023-02-14T06:18:11.444Z,51.27
2023-02-14T06:20:41.595Z,45.80
2023-02-14T06:23:13.353Z,45.50
2023-02-14T06:25:41.970Z,48.67
2023-02-14T06:28:13.642Z,49.93
2023-02-14T06:30:43.607Z,44.07
2023-02-14T06:33:12.496Z,53.03
2023-02-14T06:35:46.564Z,49.33
2023-02-14T06:38:15.249Z,51.20
2023-02-14T06:40:47.615Z,49.83
2023-02-14T06:43:19.790Z,46.73
2023-02-14T06:46:06.732Z,45.47
2023-02-14T06:48:43.499Z,47.97
2023-02-14T06:51:45.040Z,46.53
2023-02-14T06:54:18.063Z,46.17
2023-02-14T06:56:53.186Z,46.27
2023-02-14T06:59:34.842Z,46.13
2023-02-14T07:02:04.058Z,48.47
2023-02-14T07:04:32.643Z,48.57
2023-02-14T07:07:06.454Z,52.00
2023-02-14T07:09:34.956Z,48.07
2023-02-14T07:12:03.541Z,47.87
2023-02-14T07:14:42.934Z,52.40
2023-02-14T07:17:13.224Z,50.33
2023-02-14T07:20:21.692Z,51.00
2023-02-14T07:23:21.906Z,50.07
2023-02-14T07:25:50.862Z,56.57
2023-02-14T07:28:20.000Z,56.17
2023-02-14T07:30:48.918Z,53.10
2023-02-14T07:33:20.145Z,60.53
2023-02-14T07:35:48.926Z,55.70
2023-02-14T07:38:21.991Z,49.07
2023-02-14T07:40:53.577Z,55.03
2023-02-14T07:43:22.356Z,57.10
2023-02-14T07:45:51.495Z,57.97
2023-02-14T07:48:20.502Z,63.77
2023-02-14T07:50:51.553Z,64.33
2023-02-14T07:53:25.161Z,65.33
2023-02-14T07:55:56.695Z,62.17
2023-02-14T07:58:27.330Z,67.57
2023-02-14T08:00:59.891Z,66.80
2023-02-14T08:03:29.046Z,73.00
2023-02-14T08:06:03.463Z,71.87
2023-02-14T08:08:33.333Z,73.40
2023-02-14T08:11:02.441Z,74.90
2023-02-14T08:13:31.157Z,77.10
2023-02-14T08:16:06.025Z,84.33
2023-02-14T08:18:35.345Z,72.33
2023-02-14T08:21:04.283Z,72.27
2023-02-14T08:23:34.734Z,76.13
2023-02-14T08:26:03.490Z,67.97
2023-02-14T08:28:35.901Z,67.70
2023-02-14T08:31:04.696Z,67.73
2023-02-14T08:33:33.441Z,66.90
2023-02-14T08:36:02.634Z,63.40
2023-02-14T08:38:31.561Z,65.37
2023-02-14T08:41:05.798Z,66.60
2023-02-14T08:43:36.233Z,68.23
2023-02-14T08:46:04.820Z,66.00
2023-02-14T08:48:33.443Z,70.93
2023-02-14T08:51:02.170Z,76.60
2023-02-14T08:53:30.790Z,68.77
2023-02-14T08:55:59.432Z,70.63
2023-02-14T08:58:30.474Z,77.23
2023-02-14T09:00:59.934Z,66.27
2023-02-14T09:03:28.491Z,72.33
2023-02-14T09:05:56.869Z,66.83
2023-02-14T09:08:25.325Z,74.97
2023-02-14T09:10:53.786Z,75.77
2023-02-14T09:13:22.245Z,70.70
2023-02-14T09:15:52.045Z,75.10
2023-02-14T09:18:20.491Z,73.60
2023-02-14T09:20:48.887Z,71.90
2023-02-14T09:23:17.426Z,67.20
2023-02-14T09:25:45.907Z,75.70
2023-02-14T09:28:14.578Z,67.43
2023-02-14T09:30:43.060Z,69.83
2023-02-14T09:33:12.893Z,70.97
2023-02-14T09:35:41.261Z,69.50
2023-02-14T09:38:20.234Z,65.83
2023-02-14T09:40:50.561Z,64.10
2023-02-14T09:43:20.328Z,68.93
2023-02-14T09:45:49.577Z,64.87
2023-02-14T09:48:21.684Z,66.43
2023-02-14T09:50:50.829Z,57.40
2023-02-14T09:53:21.057Z,58.10
2023-02-14T09:55:50.870Z,66.90
2023-02-14T09:58:21.108Z,61.50
2023-02-14T10:00:50.991Z,66.40
2023-02-14T10:03:52.620Z,66.87
2023-02-14T10:06:29.030Z,60.80
2023-02-14T10:09:00.025Z,63.43
2023-02-14T10:11:28.644Z,67.10
2023-02-14T10:13:57.908Z,62.67
2023-02-14T10:16:27.398Z,63.70
2023-02-14T10:18:56.645Z,63.70
2023-02-14T10:21:25.806Z,63.20
2023-02-14T10:23:57.974Z,62.50
2023-02-14T10:26:27.326Z,57.07
2023-02-14T10:28:56.209Z,63.33
2023-02-14T10:31:25.650Z,60.17
2023-02-14T10:33:57.516Z,61.43
2023-02-14T10:36:44.038Z,61.77
2023-02-14T10:39:18.928Z,57.13
2023-02-14T10:41:49.297Z,62.57
2023-02-14T10:44:24.053Z,62.43
2023-02-14T10:46:54.763Z,58.60
2023-02-14T10:49:28.164Z,62.47
2023-02-14T10:51:57.494Z,60.23
2023-02-14T10:54:29.133Z,58.67
2023-02-14T10:56:58.660Z,58.80
2023-02-14T10:59:27.826Z,60.77
2023-02-14T11:01:56.387Z,60.77
2023-02-14T11:04:25.603Z,60.17
2023-02-14T11:06:54.418Z,59.93
2023-02-14T11:09:22.903Z,60.27
2023-02-14T11:11:53.424Z,56.80
2023-02-14T11:14:22.955Z,53.40
2023-02-14T11:16:52.657Z,53.80
2023-02-14T11:19:22.115Z,53.80
2023-02-14T11:21:50.945Z,56.97
2023-02-14T11:24:20.096Z,49.80
2023-02-14T11:26:48.897Z,54.33
2023-02-14T11:29:19.528Z,54.00
2023-02-14T11:31:48.028Z,53.90
2023-02-14T11:34:23.168Z,54.83
2023-02-14T11:36:51.656Z,51.73
2023-02-14T11:39:22.632Z,57.73
2023-02-14T11:41:51.798Z,56.37
2023-02-14T11:44:23.572Z,54.37
2023-02-14T11:46:53.683Z,55.50
2023-02-14T11:49:28.338Z,51.47
2023-02-14T11:51:57.148Z,51.30
2023-02-14T11:54:29.018Z,50.97
2023-02-14T11:56:57.914Z,51.70
2023-02-14T11:59:29.494Z,62.07
2023-02-14T12:01:58.976Z,55.83
2023-02-14T12:04:30.847Z,52.30
2023-02-14T12:07:00.390Z,51.63
2023-02-14T12:09:30.357Z,51.87
2023-02-14T12:11:58.935Z,47.13
2023-02-14T12:14:29.804Z,52.00
2023-02-14T12:16:59.052Z,49.53
2023-02-14T12:19:31.244Z,51.63
2023-02-14T12:22:00.227Z,47.90
2023-02-14T12:24:30.192Z,52.33
2023-02-14T12:27:00.678Z,53.53
2023-02-14T12:29:31.315Z,47.93
2023-02-14T12:32:01.642Z,51.20
2023-02-14T12:34:30.480Z,50.33
2023-02-14T12:37:10.481Z,49.37
2023-02-14T12:39:39.917Z,51.63
2023-02-14T12:42:12.166Z,52.63
2023-02-14T12:44:43.349Z,47.87
2023-02-14T12:47:15.602Z,48.77
2023-02-14T12:49:52.547Z,48.13
2023-02-14T12:52:29.719Z,50.17
2023-02-14T12:55:02.393Z,52.30
2023-02-14T12:57:34.216Z,48.10
2023-02-14T13:00:08.346Z,50.30
2023-02-14T13:02:53.833Z,47.83
2023-02-14T13:05:23.179Z,49.47
2023-02-14T13:07:58.267Z,45.03
2023-02-14T13:10:30.144Z,48.37
2023-02-14T13:13:00.906Z,48.00
2023-02-14T13:15:32.350Z,46.30
2023-02-14T13:18:01.939Z,43.93
2023-02-14T13:20:41.017Z,44.47
2023-02-14T13:23:12.752Z,47.37
2023-02-14T13:25:42.963Z,49.57
2023-02-14T13:28:13.238Z,47.13
2023-02-14T13:30:43.217Z,47.57
2023-02-14T13:33:25.076Z,48.07
2023-02-14T13:35:53.762Z,45.27
2023-02-14T13:38:22.234Z,48.20
2023-02-14T13:40:53.557Z,42.40
2023-02-14T13:43:36.825Z,48.13
2023-02-14T13:46:07.121Z,42.60
2023-02-14T13:48:38.005Z,43.10
2023-02-14T13:51:08.319Z,40.10
2023-02-14T13:53:41.387Z,41.97
2023-02-14T13:56:28.477Z,39.23
2023-02-14T13:58:59.828Z,38.90
2023-02-14T14:01:34.165Z,41.37
2023-02-14T14:04:02.993Z,37.90
2023-02-14T14:06:31.544Z,37.97
2023-02-14T14:08:59.988Z,38.03
2023-02-14T14:12:01.830Z,41.80
2023-02-14T14:14:36.303Z,41.87
2023-02-14T14:17:19.210Z,42.00
2023-02-14T14:19:48.177Z,43.80
2023-02-14T14:22:19.922Z,43.90
2023-02-14T14:25:09.512Z,43.70
2023-02-14T14:27:38.435Z,44.23
2023-02-14T14:30:07.537Z,45.77
2023-02-14T14:32:37.939Z,51.27
2023-02-14T14:35:07.242Z,50.23
2023-02-14T14:37:35.988Z,49.70
2023-02-14T14:40:05.100Z,50.73
2023-02-14T14:42:34.954Z,48.03
2023-02-14T14:45:20.828Z,50.53
2023-02-14T14:47:52.869Z,46.87
2023-02-14T14:50:24.245Z,52.23
2023-02-14T14:52:53.528Z,50.07
2023-02-14T14:55:22.503Z,49.90
2023-02-14T14:57:51.545Z,50.97
2023-02-14T15:00:24.310Z,51.97
2023-02-14T15:03:01.314Z,54.30
2023-02-14T15:05:30.391Z,52.37
2023-02-14T15:07:58.931Z,51.43
2023-02-14T15:10:28.343Z,53.77
2023-02-14T15:13:15.612Z,45.97
2023-02-14T15:15:44.387Z,53.60
2023-02-14T15:18:15.391Z,54.13
2023-02-14T15:20:44.404Z,52.40
2023-02-14T15:23:17.735Z,52.77
2023-02-14T15:25:46.113Z,54.23
2023-02-14T15:28:17.445Z,52.27
2023-02-14T15:30:46.690Z,53.93
2023-02-14T15:33:16.463Z,50.87
2023-02-14T15:35:44.969Z,51.73
2023-02-14T15:38:13.512Z,53.00
2023-02-14T15:40:42.033Z,54.10
2023-02-14T15:43:16.125Z,55.63
2023-02-14T15:45:45.190Z,53.00
2023-02-14T15:48:16.603Z,55.73
2023-02-14T15:50:46.778Z,54.73
2023-02-14T15:53:25.963Z,59.00
2023-02-14T15:55:54.732Z,51.70
2023-02-14T15:58:23.640Z,54.07
2023-02-14T16:00:52.279Z,57.50
2023-02-14T16:03:22.878Z,60.27
2023-02-14T16:05:51.710Z,57.00
2023-02-14T16:08:27.562Z,56.80
2023-02-14T16:11:03.128Z,57.10
2023-02-14T16:13:32.281Z,53.53
2023-02-14T16:16:18.625Z,56.73
2023-02-14T16:18:48.940Z,59.97
2023-02-14T16:21:18.805Z,52.60
2023-02-14T16:23:47.428Z,57.10
2023-02-14T16:26:16.101Z,59.07
2023-02-14T16:28:44.786Z,60.40
2023-02-14T16:31:14.637Z,84.80
2023-02-14T16:33:43.350Z,62.50
2023-02-14T16:36:16.373Z,58.40
2023-02-14T16:38:45.518Z,60.60
2023-02-14T16:41:20.938Z,55.30
2023-02-14T16:43:49.550Z,59.33
2023-02-14T16:46:18.448Z,59.27
2023-02-14T16:48:46.973Z,57.97
2023-02-14T16:51:17.056Z,62.13
2023-02-14T16:53:45.441Z,55.73
2023-02-14T16:56:14.963Z,57.60
2023-02-14T16:58:43.500Z,56.37
2023-02-14T17:01:12.033Z,59.00
2023-02-14T17:03:42.523Z,56.10
2023-02-14T17:06:11.500Z,58.90
2023-02-14T17:08:41.455Z,56.63
2023-02-14T17:11:09.945Z,60.03
2023-02-14T17:13:40.838Z,56.50
2023-02-14T17:16:11.098Z,60.53
2023-02-14T17:18:39.664Z,61.10
2023-02-14T17:21:08.061Z,62.13
2023-02-14T17:23:36.494Z,65.83
2023-02-14T17:26:07.157Z,64.67
2023-02-14T17:28:35.792Z,60.77
2023-02-14T17:31:06.437Z,58.07
2023-02-14T17:33:35.481Z,58.97
2023-02-14T17:36:07.258Z,70.63
2023-02-14T17:38:35.981Z,60.97
2023-02-14T17:41:13.382Z,57.10
2023-02-14T17:43:41.840Z,56.50
2023-02-14T17:46:10.293Z,60.13
2023-02-14T17:48:38.662Z,57.47
2023-02-14T17:51:07.324Z,64.10
2023-02-14T17:53:35.734Z,63.10
2023-02-14T17:56:07.439Z,62.93
2023-02-14T17:58:37.374Z,61.40
2023-02-14T18:01:06.086Z,59.87
2023-02-14T18:03:34.710Z,63.67
2023-02-14T18:06:03.417Z,62.70
2023-02-14T18:08:32.436Z,63.63
2023-02-14T18:11:01.368Z,64.67
2023-02-14T18:13:29.944Z,63.97
2023-02-14T18:16:00.494Z,60.67
2023-02-14T18:18:28.979Z,69.43
2023-02-14T18:20:57.874Z,61.57
2023-02-14T18:23:26.542Z,69.57
2023-02-14T18:25:56.096Z,64.40
2023-02-14T18:28:24.623Z,67.90
2023-02-14T18:30:58.023Z,65.53
2023-02-14T18:33:28.472Z,66.87
2023-02-14T18:35:57.148Z,75.90
2023-02-14T18:38:25.572Z,64.77
2023-02-14T18:40:54.277Z,65.30
2023-02-14T18:43:25.641Z,75.63
2023-02-14T18:45:54.185Z,64.53
2023-02-14T18:48:22.806Z,72.23
2023-02-14T18:50:52.958Z,64.93
2023-02-14T18:53:21.434Z,69.10
2023-02-14T18:55:49.945Z,73.03
2023-02-14T18:58:19.510Z,63.93
2023-02-14T19:00:48.306Z,62.90
2023-02-14T19:03:16.932Z,67.03
2023-02-14T19:05:45.383Z,65.53
2023-02-14T19:08:15.591Z,72.23
2023-02-14T19:11:04.084Z,68.13
2023-02-14T19:13:34.319Z,67.77
2023-02-14T19:16:03.542Z,74.47
2023-02-14T19:18:32.161Z,75.83
2023-02-14T19:21:00.796Z,72.40
2023-02-14T19:23:33.109Z,71.53
2023-02-14T19:26:15.975Z,76.93
2023-02-14T19:29:00.138Z,80.83
2023-02-14T19:31:30.924Z,81.73
2023-02-14T19:33:59.515Z,84.53
2023-02-14T19:36:28.004Z,81.77
2023-02-14T19:38:58.002Z,77.77
2023-02-14T19:41:27.257Z,85.80
2023-02-14T19:43:57.603Z,80.73
2023-02-14T19:46:26.273Z,78.23
2023-02-14T19:48:55.259Z,81.47
2023-02-14T19:51:25.757Z,78.10
2023-02-14T19:53:54.368Z,77.93
2023-02-14T19:56:24.471Z,80.47
2023-02-14T19:58:53.158Z,82.00
2023-02-14T20:01:24.143Z,80.57
2023-02-14T20:03:53.204Z,79.50
2023-02-14T20:06:22.096Z,77.00
2023-02-14T20:08:50.511Z,81.70
2023-02-14T20:11:22.730Z,78.10
2023-02-14T20:13:52.577Z,83.27
2023-02-14T20:16:21.043Z,83.20
2023-02-14T20:18:49.932Z,82.67
2023-02-14T20:21:19.037Z,84.90
2023-02-14T20:23:47.755Z,87.90
2023-02-14T20:26:16.285Z,83.97
2023-02-14T20:28:44.921Z,87.93
2023-02-14T20:31:16.000Z,90.10
2023-02-14T20:33:44.882Z,96.73
2023-02-14T20:36:13.390Z,92.27
2023-02-14T20:38:42.421Z,88.13
2023-02-14T20:41:11.516Z,90.23
2023-02-14T20:43:40.160Z,92.13
2023-02-14T20:46:09.099Z,93.23
2023-02-14T20:48:39.172Z,96.60
2023-02-14T20:51:11.709Z,95.67
2023-02-14T20:53:40.361Z,99.43
2023-02-14T20:56:08.921Z,107.10
2023-02-14T20:58:37.875Z,92.93
2023-02-14T21:01:09.430Z,98.70
2023-02-14T21:03:40.663Z,97.07
2023-02-14T21:06:11.639Z,92.03
2023-02-14T21:08:40.280Z,93.37
2023-02-14T21:11:09.354Z,94.67
2023-02-14T21:13:38.209Z,93.73
2023-02-14T21:16:06.935Z,92.53
2023-02-14T21:18:35.480Z,91.83
2023-02-14T21:21:08.503Z,89.60
2023-02-14T21:23:37.064Z,85.70
2023-02-14T21:26:05.596Z,98.50
2023-02-14T21:28:34.278Z,90.87
2023-02-14T21:31:06.131Z,89.00
2023-02-14T21:33:34.695Z,93.30
2023-02-14T21:36:08.754Z,93.50
2023-02-14T21:38:37.368Z,93.27
2023-02-14T21:41:06.348Z,96.83
2023-02-14T21:43:35.727Z,91.67
2023-02-14T21:46:05.105Z,90.93
2023-02-14T21:48:51.260Z,91.57
2023-02-14T21:51:21.161Z,96.53
2023-02-14T21:53:49.729Z,94.80
2023-02-14T21:56:19.864Z,98.53
2023-02-14T21:58:48.790Z,95.23
2023-02-14T22:01:19.561Z,94.57
2023-02-14T22:03:48.577Z,88.93
2023-02-14T22:06:17.203Z,87.97
2023-02-14T22:08:47.338Z,91.53
2023-02-14T22:11:16.319Z,94.27
2023-02-14T22:13:44.817Z,86.60
2023-02-14T22:16:13.782Z,87.33
2023-02-14T22:18:42.252Z,90.50
2023-02-14T22:21:11.518Z,89.67
2023-02-14T22:23:40.048Z,87.70
2023-02-14T22:26:13.540Z,89.97
2023-02-14T22:28:42.281Z,86.37
2023-02-14T22:31:10.893Z,85.33
2023-02-14T22:33:39.368Z,84.47
2023-02-14T22:36:08.454Z,88.40
2023-02-14T22:38:37.026Z,90.90
2023-02-14T22:41:08.622Z,83.90
2023-02-14T22:43:38.625Z,89.90
2023-02-14T22:46:07.374Z,87.43
2023-02-14T22:48:36.503Z,84.87
2023-02-14T22:51:11.633Z,84.17
2023-02-14T22:53:40.130Z,87.57
2023-02-14T22:56:15.037Z,91.43
2023-02-14T22:58:45.330Z,92.10
2023-02-14T23:01:16.950Z,84.23
2023-02-14T23:03:45.616Z,88.90
2023-02-14T23:06:14.665Z,89.40
2023-02-14T23:08:43.591Z,89.03
2023-02-14T23:11:12.392Z,83.53
2023-02-14T23:14:02.892Z,89.70
2023-02-14T23:16:48.297Z,83.33
2023-02-14T23:19:34.922Z,84.03
2023-02-14T23:22:04.129Z,90.53
2023-02-14T23:24:32.516Z,85.37
2023-02-14T23:27:00.933Z,84.30
2023-02-14T23:29:30.709Z,90.77
2023-02-14T23:32:02.340Z,83.40
2023-02-14T23:34:31.616Z,89.33
2023-02-14T23:37:00.115Z,84.27
2023-02-14T23:39:28.542Z,93.10
2023-02-14T23:41:56.971Z,89.93
2023-02-14T23:44:26.685Z,88.17
2023-02-14T23:46:57.493Z,91.07
2023-02-14T23:49:26.024Z,88.27
2023-02-14T23:51:54.930Z,88.93
2023-02-14T23:54:23.578Z,83.07
2023-02-14T23:56:52.226Z,91.27
2023-02-14T23:59:20.782Z,83.73
